sensor_id;sensor_type;location;lat;lon;timestamp;P1;durP1;ratioP1;P2;durP2;ratioP2
72649;SDS011;61467;50.674;4.618;2024-03-07T00:02:08;14.40;;;7.78;;
72649;SDS011;61467;50.674;4.618;2024-03-07T00:04:35;17.90;;;7.55;;
72649;SDS011;61467;50.674;4.618;2024-03-07T00:07:02;14.83;;;8.37;;
72649;SDS011;61467;50.674;4.618;2024-03-07T00:09:31;13.57;;;7.28;;
72649;SDS011;61467;50.674;4.618;2024-03-07T00:11:59;13.98;;;8.23;;
72649;SDS011;61467;50.674;4.618;2024-03-07T00:14:26;15.27;;;7.60;;
72649;SDS011;61467;50.674;4.618;2024-03-07T00:16:54;14.98;;;7.78;;
72649;SDS011;61467;50.674;4.618;2024-03-07T00:19:22;14.70;;;8.20;;
72649;SDS011;61467;50.674;4.618;2024-03-07T00:21:51;15.30;;;8.45;;
72649;SDS011;61467;50.674;4.618;2024-03-07T00:24:18;17.05;;;9.13;;
72649;SDS011;61467;50.674;4.618;2024-03-07T00:26:47;16.05;;;8.52;;
72649;SDS011;61467;50.674;4.618;2024-03-07T00:29:15;16.33;;;8.20;;
72649;SDS011;61467;50.674;4.618;2024-03-07T00:31:43;16.50;;;9.17;;
72649;SDS011;61467;50.674;4.618;2024-03-07T00:34:10;17.05;;;9.27;;
72649;SDS011;61467;50.674;4.618;2024-03-07T00:36:39;15.35;;;8.63;;
72649;SDS011;61467;50.674;4.618;2024-03-07T00:39:06;18.08;;;10.13;;
72649;SDS011;61467;50.674;4.618;2024-03-07T00:41:33;19.52;;;10.82;;
72649;SDS011;61467;50.674;4.618;2024-03-07T00:44:01;19.13;;;10.50;;
72649;SDS011;61467;50.674;4.618;2024-03-07T00:46:28;18.58;;;10.93;;
72649;SDS011;61467;50.674;4.618;2024-03-07T00:48:55;22.85;;;11.23;;
72649;SDS011;61467;50.674;4.618;2024-03-07T00:51:22;23.40;;;11.65;;
72649;SDS011;61467;50.674;4.618;2024-03-07T00:53:49;24.65;;;11.43;;
72649;SDS011;61467;50.674;4.618;2024-03-07T00:56:16;27.13;;;12.93;;
72649;SDS011;61467;50.674;4.618;2024-03-07T00:58:44;27.80;;;14.40;;
72649;SDS011;61467;50.674;4.618;2024-03-07T01:01:12;34.53;;;14.50;;
72649;SDS011;61467;50.674;4.618;2024-03-07T01:03:40;30.20;;;14.27;;
72649;SDS011;61467;50.674;4.618;2024-03-07T01:06:07;30.33;;;15.40;;
72649;SDS011;61467;50.674;4.618;2024-03-07T01:08:35;31.60;;;15.63;;
72649;SDS011;61467;50.674;4.618;2024-03-07T01:11:02;31.40;;;15.27;;
72649;SDS011;61467;50.674;4.618;2024-03-07T01:13:34;32.10;;;15.27;;
72649;SDS011;61467;50.674;4.618;2024-03-07T01:16:01;31.10;;;15.05;;
72649;SDS011;61467;50.674;4.618;2024-03-07T01:18:30;31.92;;;15.90;;
72649;SDS011;61467;50.674;4.618;2024-03-07T01:20:58;34.20;;;16.10;;
72649;SDS011;61467;50.674;4.618;2024-03-07T01:23:25;30.65;;;15.18;;
72649;SDS011;61467;50.674;4.618;2024-03-07T01:25:53;34.35;;;16.02;;
72649;SDS011;61467;50.674;4.618;2024-03-07T01:28:21;30.42;;;15.73;;
72649;SDS011;61467;50.674;4.618;2024-03-07T01:30:48;32.42;;;15.98;;
72649;SDS011;61467;50.674;4.618;2024-03-07T01:33:15;31.73;;;15.20;;
72649;SDS011;61467;50.674;4.618;2024-03-07T01:35:44;35.20;;;15.98;;
72649;SDS011;61467;50.674;4.618;2024-03-07T01:38:10;35.55;;;17.90;;
72649;SDS011;61467;50.674;4.618;2024-03-07T01:40:39;36.63;;;17.92;;
72649;SDS011;61467;50.674;4.618;2024-03-07T01:43:06;38.67;;;18.95;;
72649;SDS011;61467;50.674;4.618;2024-03-07T01:45:33;40.30;;;19.80;;
72649;SDS011;61467;50.674;4.618;2024-03-07T01:48:02;38.22;;;18.30;;
72649;SDS011;61467;50.674;4.618;2024-03-07T01:50:29;39.88;;;19.55;;
72649;SDS011;61467;50.674;4.618;2024-03-07T01:52:57;40.67;;;18.73;;
72649;SDS011;61467;50.674;4.618;2024-03-07T01:55:26;37.85;;;18.58;;
72649;SDS011;61467;50.674;4.618;2024-03-07T01:57:54;37.73;;;18.87;;
72649;SDS011;61467;50.674;4.618;2024-03-07T02:00:25;42.83;;;19.17;;
72649;SDS011;61467;50.674;4.618;2024-03-07T02:02:53;41.63;;;19.80;;
72649;SDS011;61467;50.674;4.618;2024-03-07T02:05:20;37.75;;;19.95;;
72649;SDS011;61467;50.674;4.618;2024-03-07T02:07:47;39.15;;;20.00;;
72649;SDS011;61467;50.674;4.618;2024-03-07T02:10:16;40.63;;;19.53;;
72649;SDS011;61467;50.674;4.618;2024-03-07T02:12:43;45.30;;;20.08;;
72649;SDS011;61467;50.674;4.618;2024-03-07T02:15:10;41.70;;;19.92;;
72649;SDS011;61467;50.674;4.618;2024-03-07T02:17:39;43.72;;;20.20;;
72649;SDS011;61467;50.674;4.618;2024-03-07T02:20:07;40.67;;;19.85;;
72649;SDS011;61467;50.674;4.618;2024-03-07T02:22:37;41.87;;;20.13;;
72649;SDS011;61467;50.674;4.618;2024-03-07T02:25:04;42.13;;;20.73;;
72649;SDS011;61467;50.674;4.618;2024-03-07T02:27:35;41.83;;;19.65;;
72649;SDS011;61467;50.674;4.618;2024-03-07T02:30:02;42.38;;;20.33;;
72649;SDS011;61467;50.674;4.618;2024-03-07T02:32:31;41.05;;;20.35;;
72649;SDS011;61467;50.674;4.618;2024-03-07T02:34:58;44.60;;;20.33;;
72649;SDS011;61467;50.674;4.618;2024-03-07T02:37:24;43.20;;;20.88;;
72649;SDS011;61467;50.674;4.618;2024-03-07T02:39:53;46.03;;;21.45;;
72649;SDS011;61467;50.674;4.618;2024-03-07T02:42:20;43.80;;;20.02;;
72649;SDS011;61467;50.674;4.618;2024-03-07T02:44:47;45.83;;;21.00;;
72649;SDS011;61467;50.674;4.618;2024-03-07T02:47:14;45.73;;;21.37;;
72649;SDS011;61467;50.674;4.618;2024-03-07T02:49:42;47.20;;;21.77;;
72649;SDS011;61467;50.674;4.618;2024-03-07T02:52:09;46.28;;;21.33;;
72649;SDS011;61467;50.674;4.618;2024-03-07T02:54:36;42.00;;;20.55;;
72649;SDS011;61467;50.674;4.618;2024-03-07T02:57:04;47.95;;;21.20;;
72649;SDS011;61467;50.674;4.618;2024-03-07T02:59:31;45.83;;;22.77;;
72649;SDS011;61467;50.674;4.618;2024-03-07T03:01:58;49.13;;;20.73;;
72649;SDS011;61467;50.674;4.618;2024-03-07T03:04:25;49.38;;;22.08;;
72649;SDS011;61467;50.674;4.618;2024-03-07T03:06:52;51.00;;;23.45;;
72649;SDS011;61467;50.674;4.618;2024-03-07T03:09:19;49.38;;;22.20;;
72649;SDS011;61467;50.674;4.618;2024-03-07T03:11:46;47.03;;;21.80;;
72649;SDS011;61467;50.674;4.618;2024-03-07T03:14:15;47.03;;;21.52;;
72649;SDS011;61467;50.674;4.618;2024-03-07T03:16:42;50.60;;;22.80;;
72649;SDS011;61467;50.674;4.618;2024-03-07T03:19:09;53.65;;;23.67;;
72649;SDS011;61467;50.674;4.618;2024-03-07T03:21:36;52.67;;;22.83;;
72649;SDS011;61467;50.674;4.618;2024-03-07T03:24:03;51.37;;;23.13;;
72649;SDS011;61467;50.674;4.618;2024-03-07T03:26:32;50.88;;;23.35;;
72649;SDS011;61467;50.674;4.618;2024-03-07T03:28:59;50.50;;;22.33;;
72649;SDS011;61467;50.674;4.618;2024-03-07T03:31:27;53.30;;;22.30;;
72649;SDS011;61467;50.674;4.618;2024-03-07T03:33:54;46.28;;;22.17;;
72649;SDS011;61467;50.674;4.618;2024-03-07T03:36:21;47.07;;;21.90;;
72649;SDS011;61467;50.674;4.618;2024-03-07T03:38:47;49.50;;;22.08;;
72649;SDS011;61467;50.674;4.618;2024-03-07T03:41:15;48.47;;;23.48;;
72649;SDS011;61467;50.674;4.618;2024-03-07T03:43:42;47.72;;;22.50;;
72649;SDS011;61467;50.674;4.618;2024-03-07T03:46:09;49.28;;;23.98;;
72649;SDS011;61467;50.674;4.618;2024-03-07T03:48:38;53.97;;;23.90;;
72649;SDS011;61467;50.674;4.618;2024-03-07T03:51:06;51.88;;;22.35;;
72649;SDS011;61467;50.674;4.618;2024-03-07T03:53:34;48.42;;;22.05;;
72649;SDS011;61467;50.674;4.618;2024-03-07T03:56:01;51.70;;;22.45;;
72649;SDS011;61467;50.674;4.618;2024-03-07T03:58:29;52.38;;;22.60;;
72649;SDS011;61467;50.674;4.618;2024-03-07T04:00:56;52.10;;;23.53;;
72649;SDS011;61467;50.674;4.618;2024-03-07T04:03:25;51.15;;;23.48;;
72649;SDS011;61467;50.674;4.618;2024-03-07T04:05:53;54.67;;;24.75;;
72649;SDS011;61467;50.674;4.618;2024-03-07T04:08:21;49.72;;;22.00;;
72649;SDS011;61467;50.674;4.618;2024-03-07T04:10:48;52.50;;;22.58;;
72649;SDS011;61467;50.674;4.618;2024-03-07T04:13:15;54.07;;;22.33;;
72649;SDS011;61467;50.674;4.618;2024-03-07T04:15:41;51.35;;;23.58;;
72649;SDS011;61467;50.674;4.618;2024-03-07T04:18:08;56.22;;;25.52;;
72649;SDS011;61467;50.674;4.618;2024-03-07T04:20:35;52.25;;;22.98;;
72649;SDS011;61467;50.674;4.618;2024-03-07T04:23:04;51.55;;;24.23;;
72649;SDS011;61467;50.674;4.618;2024-03-07T04:25:31;57.57;;;24.53;;
72649;SDS011;61467;50.674;4.618;2024-03-07T04:27:58;53.05;;;24.35;;
72649;SDS011;61467;50.674;4.618;2024-03-07T04:30:25;50.35;;;24.13;;
72649;SDS011;61467;50.674;4.618;2024-03-07T04:32:52;53.00;;;23.42;;
72649;SDS011;61467;50.674;4.618;2024-03-07T04:35:19;51.35;;;23.30;;
72649;SDS011;61467;50.674;4.618;2024-03-07T04:37:46;52.83;;;23.40;;
72649;SDS011;61467;50.674;4.618;2024-03-07T04:40:15;55.30;;;25.27;;
72649;SDS011;61467;50.674;4.618;2024-03-07T04:42:42;54.38;;;23.88;;
72649;SDS011;61467;50.674;4.618;2024-03-07T04:45:09;56.75;;;24.63;;
72649;SDS011;61467;50.674;4.618;2024-03-07T04:47:38;56.47;;;23.88;;
72649;SDS011;61467;50.674;4.618;2024-03-07T04:50:05;52.90;;;23.77;;
72649;SDS011;61467;50.674;4.618;2024-03-07T04:52:35;52.53;;;24.67;;
72649;SDS011;61467;50.674;4.618;2024-03-07T04:55:02;55.20;;;24.80;;
72649;SDS011;61467;50.674;4.618;2024-03-07T04:57:31;61.65;;;26.23;;
72649;SDS011;61467;50.674;4.618;2024-03-07T04:59:58;58.72;;;25.50;;
72649;SDS011;61467;50.674;4.618;2024-03-07T05:02:25;54.23;;;24.80;;
72649;SDS011;61467;50.674;4.618;2024-03-07T05:04:52;59.92;;;26.50;;
72649;SDS011;61467;50.674;4.618;2024-03-07T05:07:19;58.10;;;26.30;;
72649;SDS011;61467;50.674;4.618;2024-03-07T05:09:45;56.03;;;23.90;;
72649;SDS011;61467;50.674;4.618;2024-03-07T05:12:13;61.40;;;25.98;;
72649;SDS011;61467;50.674;4.618;2024-03-07T05:14:42;56.60;;;24.30;;
72649;SDS011;61467;50.674;4.618;2024-03-07T05:17:10;57.17;;;24.35;;
72649;SDS011;61467;50.674;4.618;2024-03-07T05:19:37;60.33;;;25.40;;
72649;SDS011;61467;50.674;4.618;2024-03-07T05:22:04;58.55;;;25.38;;
72649;SDS011;61467;50.674;4.618;2024-03-07T05:24:31;60.13;;;25.42;;
72649;SDS011;61467;50.674;4.618;2024-03-07T05:26:59;61.37;;;24.97;;
72649;SDS011;61467;50.674;4.618;2024-03-07T05:29:26;63.22;;;25.90;;
72649;SDS011;61467;50.674;4.618;2024-03-07T05:31:54;60.70;;;24.40;;
72649;SDS011;61467;50.674;4.618;2024-03-07T05:34:21;61.85;;;25.98;;
72649;SDS011;61467;50.674;4.618;2024-03-07T05:36:48;58.83;;;24.23;;
72649;SDS011;61467;50.674;4.618;2024-03-07T05:39:16;55.60;;;23.33;;
72649;SDS011;61467;50.674;4.618;2024-03-07T05:41:43;58.17;;;25.02;;
72649;SDS011;61467;50.674;4.618;2024-03-07T05:44:11;62.53;;;25.30;;
72649;SDS011;61467;50.674;4.618;2024-03-07T05:46:38;60.17;;;25.33;;
72649;SDS011;61467;50.674;4.618;2024-03-07T05:49:12;64.97;;;26.15;;
72649;SDS011;61467;50.674;4.618;2024-03-07T05:51:39;56.27;;;24.87;;
72649;SDS011;61467;50.674;4.618;2024-03-07T05:54:10;65.80;;;27.20;;
72649;SDS011;61467;50.674;4.618;2024-03-07T05:56:38;62.28;;;25.23;;
72649;SDS011;61467;50.674;4.618;2024-03-07T05:59:05;56.08;;;23.95;;
72649;SDS011;61467;50.674;4.618;2024-03-07T06:01:34;53.63;;;23.52;;
72649;SDS011;61467;50.674;4.618;2024-03-07T06:04:02;61.17;;;24.00;;
72649;SDS011;61467;50.674;4.618;2024-03-07T06:06:32;54.78;;;23.48;;
72649;SDS011;61467;50.674;4.618;2024-03-07T06:09:00;51.03;;;22.08;;
72649;SDS011;61467;50.674;4.618;2024-03-07T06:11:32;58.40;;;25.15;;
72649;SDS011;61467;50.674;4.618;2024-03-07T06:13:59;54.25;;;23.25;;
72649;SDS011;61467;50.674;4.618;2024-03-07T06:16:28;53.87;;;22.97;;
72649;SDS011;61467;50.674;4.618;2024-03-07T06:18:58;53.42;;;20.90;;
72649;SDS011;61467;50.674;4.618;2024-03-07T06:21:25;52.70;;;22.40;;
72649;SDS011;61467;50.674;4.618;2024-03-07T06:23:53;56.67;;;23.17;;
72649;SDS011;61467;50.674;4.618;2024-03-07T06:26:24;51.28;;;22.10;;
72649;SDS011;61467;50.674;4.618;2024-03-07T06:29:02;47.70;;;20.63;;
72649;SDS011;61467;50.674;4.618;2024-03-07T06:31:30;53.00;;;22.40;;
72649;SDS011;61467;50.674;4.618;2024-03-07T06:33:57;50.65;;;22.60;;
72649;SDS011;61467;50.674;4.618;2024-03-07T06:36:24;57.75;;;24.00;;
72649;SDS011;61467;50.674;4.618;2024-03-07T06:38:52;50.03;;;20.70;;
72649;SDS011;61467;50.674;4.618;2024-03-07T06:41:19;52.27;;;22.83;;
72649;SDS011;61467;50.674;4.618;2024-03-07T06:43:46;53.75;;;22.00;;
72649;SDS011;61467;50.674;4.618;2024-03-07T06:46:14;52.30;;;21.88;;
72649;SDS011;61467;50.674;4.618;2024-03-07T06:48:42;53.90;;;21.55;;
72649;SDS011;61467;50.674;4.618;2024-03-07T06:51:09;50.75;;;22.83;;
72649;SDS011;61467;50.674;4.618;2024-03-07T06:53:36;53.33;;;22.90;;
72649;SDS011;61467;50.674;4.618;2024-03-07T06:56:05;49.95;;;20.65;;
72649;SDS011;61467;50.674;4.618;2024-03-07T06:58:32;46.95;;;20.85;;
72649;SDS011;61467;50.674;4.618;2024-03-07T07:00:59;49.83;;;22.63;;
72649;SDS011;61467;50.674;4.618;2024-03-07T07:03:27;51.95;;;21.25;;
72649;SDS011;61467;50.674;4.618;2024-03-07T07:05:54;49.90;;;21.43;;
72649;SDS011;61467;50.674;4.618;2024-03-07T07:08:21;48.83;;;21.67;;
72649;SDS011;61467;50.674;4.618;2024-03-07T07:10:48;45.97;;;20.73;;
72649;SDS011;61467;50.674;4.618;2024-03-07T07:13:17;48.13;;;21.90;;
72649;SDS011;61467;50.674;4.618;2024-03-07T07:15:44;50.88;;;20.77;;
72649;SDS011;61467;50.674;4.618;2024-03-07T07:18:10;52.00;;;21.93;;
72649;SDS011;61467;50.674;4.618;2024-03-07T07:20:38;48.03;;;20.48;;
72649;SDS011;61467;50.674;4.618;2024-03-07T07:23:05;48.30;;;21.27;;
72649;SDS011;61467;50.674;4.618;2024-03-07T07:25:32;54.45;;;21.95;;
72649;SDS011;61467;50.674;4.618;2024-03-07T07:27:59;51.67;;;21.73;;
72649;SDS011;61467;50.674;4.618;2024-03-07T07:30:28;46.70;;;20.33;;
72649;SDS011;61467;50.674;4.618;2024-03-07T07:32:55;54.45;;;22.10;;
72649;SDS011;61467;50.674;4.618;2024-03-07T07:35:22;51.80;;;22.48;;
72649;SDS011;61467;50.674;4.618;2024-03-07T07:37:49;49.70;;;21.75;;
72649;SDS011;61467;50.674;4.618;2024-03-07T07:40:19;50.45;;;21.55;;
72649;SDS011;61467;50.674;4.618;2024-03-07T07:42:48;54.23;;;21.50;;
72649;SDS011;61467;50.674;4.618;2024-03-07T07:45:16;52.05;;;22.05;;
72649;SDS011;61467;50.674;4.618;2024-03-07T07:47:45;50.58;;;23.20;;
72649;SDS011;61467;50.674;4.618;2024-03-07T07:50:15;54.88;;;22.30;;
72649;SDS011;61467;50.674;4.618;2024-03-07T07:52:44;51.13;;;21.40;;
72649;SDS011;61467;50.674;4.618;2024-03-07T07:55:13;57.27;;;22.57;;
72649;SDS011;61467;50.674;4.618;2024-03-07T07:57:41;59.25;;;22.67;;
72649;SDS011;61467;50.674;4.618;2024-03-07T08:00:10;58.03;;;23.45;;
72649;SDS011;61467;50.674;4.618;2024-03-07T08:02:51;55.80;;;23.50;;
72649;SDS011;61467;50.674;4.618;2024-03-07T08:05:19;56.05;;;22.25;;
72649;SDS011;61467;50.674;4.618;2024-03-07T08:07:48;61.23;;;22.63;;
72649;SDS011;61467;50.674;4.618;2024-03-07T08:10:16;56.70;;;22.23;;
72649;SDS011;61467;50.674;4.618;2024-03-07T08:12:43;53.47;;;21.40;;
72649;SDS011;61467;50.674;4.618;2024-03-07T08:15:11;52.67;;;21.00;;
72649;SDS011;61467;50.674;4.618;2024-03-07T08:17:41;55.78;;;21.20;;
72649;SDS011;61467;50.674;4.618;2024-03-07T08:20:13;48.70;;;21.87;;
72649;SDS011;61467;50.674;4.618;2024-03-07T08:22:41;56.22;;;21.48;;
72649;SDS011;61467;50.674;4.618;2024-03-07T08:25:09;54.83;;;22.17;;
72649;SDS011;61467;50.674;4.618;2024-03-07T08:27:37;57.72;;;22.67;;
72649;SDS011;61467;50.674;4.618;2024-03-07T08:30:07;55.17;;;22.55;;
72649;SDS011;61467;50.674;4.618;2024-03-07T08:32:38;53.40;;;21.33;;
72649;SDS011;61467;50.674;4.618;2024-03-07T08:35:05;54.17;;;21.75;;
72649;SDS011;61467;50.674;4.618;2024-03-07T08:37:36;52.45;;;21.25;;
72649;SDS011;61467;50.674;4.618;2024-03-07T08:40:04;54.90;;;22.15;;
72649;SDS011;61467;50.674;4.618;2024-03-07T08:42:33;55.80;;;21.83;;
72649;SDS011;61467;50.674;4.618;2024-03-07T08:45:01;49.17;;;20.63;;
72649;SDS011;61467;50.674;4.618;2024-03-07T08:47:29;51.65;;;21.38;;
72649;SDS011;61467;50.674;4.618;2024-03-07T08:49:56;55.20;;;21.70;;
72649;SDS011;61467;50.674;4.618;2024-03-07T08:52:23;56.10;;;22.02;;
72649;SDS011;61467;50.674;4.618;2024-03-07T08:54:52;57.13;;;22.85;;
72649;SDS011;61467;50.674;4.618;2024-03-07T08:57:20;52.43;;;19.67;;
72649;SDS011;61467;50.674;4.618;2024-03-07T08:59:47;52.28;;;21.08;;
72649;SDS011;61467;50.674;4.618;2024-03-07T09:02:14;53.10;;;21.52;;
72649;SDS011;61467;50.674;4.618;2024-03-07T09:04:41;54.50;;;21.30;;
72649;SDS011;61467;50.674;4.618;2024-03-07T09:07:08;47.45;;;21.48;;
72649;SDS011;61467;50.674;4.618;2024-03-07T09:09:35;48.13;;;20.33;;
72649;SDS011;61467;50.674;4.618;2024-03-07T09:12:03;48.50;;;20.85;;
72649;SDS011;61467;50.674;4.618;2024-03-07T09:14:31;50.63;;;21.35;;
72649;SDS011;61467;50.674;4.618;2024-03-07T09:16:58;49.50;;;20.05;;
72649;SDS011;61467;50.674;4.618;2024-03-07T09:19:24;49.42;;;20.55;;
72649;SDS011;61467;50.674;4.618;2024-03-07T09:21:52;52.10;;;21.67;;
72649;SDS011;61467;50.674;4.618;2024-03-07T09:24:19;52.13;;;19.90;;
72649;SDS011;61467;50.674;4.618;2024-03-07T09:26:48;48.42;;;21.25;;
72649;SDS011;61467;50.674;4.618;2024-03-07T09:29:16;51.22;;;21.05;;
72649;SDS011;61467;50.674;4.618;2024-03-07T09:31:43;51.35;;;21.27;;
72649;SDS011;61467;50.674;4.618;2024-03-07T09:34:10;53.63;;;20.30;;
72649;SDS011;61467;50.674;4.618;2024-03-07T09:36:38;51.13;;;21.23;;
72649;SDS011;61467;50.674;4.618;2024-03-07T09:39:06;47.85;;;19.67;;
72649;SDS011;61467;50.674;4.618;2024-03-07T09:41:34;50.03;;;20.70;;
72649;SDS011;61467;50.674;4.618;2024-03-07T09:44:01;45.30;;;19.70;;
72649;SDS011;61467;50.674;4.618;2024-03-07T09:46:30;50.33;;;20.03;;
72649;SDS011;61467;50.674;4.618;2024-03-07T09:48:57;50.42;;;21.00;;
72649;SDS011;61467;50.674;4.618;2024-03-07T09:51:24;51.45;;;21.85;;
72649;SDS011;61467;50.674;4.618;2024-03-07T09:53:53;50.85;;;21.85;;
72649;SDS011;61467;50.674;4.618;2024-03-07T09:56:22;49.40;;;22.25;;
72649;SDS011;61467;50.674;4.618;2024-03-07T09:58:50;49.17;;;21.43;;
72649;SDS011;61467;50.674;4.618;2024-03-07T10:01:17;51.53;;;20.92;;
72649;SDS011;61467;50.674;4.618;2024-03-07T10:03:48;55.38;;;22.17;;
72649;SDS011;61467;50.674;4.618;2024-03-07T10:06:18;49.25;;;20.08;;
72649;SDS011;61467;50.674;4.618;2024-03-07T10:08:47;53.45;;;22.65;;
72649;SDS011;61467;50.674;4.618;2024-03-07T10:11:14;56.13;;;21.87;;
72649;SDS011;61467;50.674;4.618;2024-03-07T10:13:41;51.65;;;21.17;;
72649;SDS011;61467;50.674;4.618;2024-03-07T10:16:12;51.85;;;21.90;;
72649;SDS011;61467;50.674;4.618;2024-03-07T10:18:41;50.05;;;20.58;;
72649;SDS011;61467;50.674;4.618;2024-03-07T10:21:11;49.95;;;20.63;;
72649;SDS011;61467;50.674;4.618;2024-03-07T10:23:39;54.50;;;21.60;;
72649;SDS011;61467;50.674;4.618;2024-03-07T10:26:06;51.13;;;21.15;;
72649;SDS011;61467;50.674;4.618;2024-03-07T10:28:35;53.67;;;22.67;;
72649;SDS011;61467;50.674;4.618;2024-03-07T10:31:02;49.33;;;21.02;;
72649;SDS011;61467;50.674;4.618;2024-03-07T10:33:36;51.70;;;22.52;;
72649;SDS011;61467;50.674;4.618;2024-03-07T10:36:04;49.57;;;21.87;;
72649;SDS011;61467;50.674;4.618;2024-03-07T10:38:37;51.83;;;22.42;;
72649;SDS011;61467;50.674;4.618;2024-03-07T10:41:04;51.53;;;21.80;;
72649;SDS011;61467;50.674;4.618;2024-03-07T10:43:34;49.10;;;22.35;;
72649;SDS011;61467;50.674;4.618;2024-03-07T10:46:07;52.55;;;21.98;;
72649;SDS011;61467;50.674;4.618;2024-03-07T10:48:38;52.07;;;21.93;;
72649;SDS011;61467;50.674;4.618;2024-03-07T10:51:06;49.72;;;22.20;;
72649;SDS011;61467;50.674;4.618;2024-03-07T10:53:45;54.50;;;22.88;;
72649;SDS011;61467;50.674;4.618;2024-03-07T10:56:29;52.30;;;20.92;;
72649;SDS011;61467;50.674;4.618;2024-03-07T10:59:11;47.85;;;21.60;;
72649;SDS011;61467;50.674;4.618;2024-03-07T11:01:45;52.27;;;23.03;;
72649;SDS011;61467;50.674;4.618;2024-03-07T11:04:16;48.25;;;21.42;;
72649;SDS011;61467;50.674;4.618;2024-03-07T11:06:47;47.13;;;22.08;;
72649;SDS011;61467;50.674;4.618;2024-03-07T11:09:16;52.15;;;22.90;;
72649;SDS011;61467;50.674;4.618;2024-03-07T11:11:49;47.15;;;21.35;;
72649;SDS011;61467;50.674;4.618;2024-03-07T11:14:16;47.07;;;20.77;;
72649;SDS011;61467;50.674;4.618;2024-03-07T11:16:44;44.83;;;20.75;;
72649;SDS011;61467;50.674;4.618;2024-03-07T11:19:20;42.58;;;20.00;;
72649;SDS011;61467;50.674;4.618;2024-03-07T11:21:52;42.75;;;19.67;;
72649;SDS011;61467;50.674;4.618;2024-03-07T11:24:25;47.10;;;21.00;;
72649;SDS011;61467;50.674;4.618;2024-03-07T11:26:54;40.90;;;19.80;;
72649;SDS011;61467;50.674;4.618;2024-03-07T11:32:13;39.75;;;18.45;;
72649;SDS011;61467;50.674;4.618;2024-03-07T11:34:42;37.63;;;17.92;;
72649;SDS011;61467;50.674;4.618;2024-03-07T11:37:16;40.13;;;18.55;;
72649;SDS011;61467;50.674;4.618;2024-03-07T11:39:49;44.93;;;19.00;;
72649;SDS011;61467;50.674;4.618;2024-03-07T11:42:24;33.83;;;17.25;;
72649;SDS011;61467;50.674;4.618;2024-03-07T11:44:53;38.00;;;18.20;;
72649;SDS011;61467;50.674;4.618;2024-03-07T11:47:22;37.67;;;17.00;;
72649;SDS011;61467;50.674;4.618;2024-03-07T11:49:49;37.70;;;18.10;;
72649;SDS011;61467;50.674;4.618;2024-03-07T11:52:17;35.67;;;17.17;;
72649;SDS011;61467;50.674;4.618;2024-03-07T11:54:45;36.05;;;17.00;;
72649;SDS011;61467;50.674;4.618;2024-03-07T11:57:14;33.30;;;16.48;;
72649;SDS011;61467;50.674;4.618;2024-03-07T11:59:42;36.35;;;16.50;;
72649;SDS011;61467;50.674;4.618;2024-03-07T12:02:14;33.05;;;17.17;;
72649;SDS011;61467;50.674;4.618;2024-03-07T12:04:43;30.70;;;15.17;;
72649;SDS011;61467;50.674;4.618;2024-03-07T12:07:10;31.90;;;15.48;;
72649;SDS011;61467;50.674;4.618;2024-03-07T12:09:37;31.10;;;15.73;;
72649;SDS011;61467;50.674;4.618;2024-03-07T12:12:05;31.50;;;15.82;;
72649;SDS011;61467;50.674;4.618;2024-03-07T12:14:33;31.95;;;15.75;;
72649;SDS011;61467;50.674;4.618;2024-03-07T12:17:01;31.20;;;15.90;;
72649;SDS011;61467;50.674;4.618;2024-03-07T12:19:29;37.67;;;16.10;;
72649;SDS011;61467;50.674;4.618;2024-03-07T12:21:59;32.88;;;15.88;;
72649;SDS011;61467;50.674;4.618;2024-03-07T12:24:28;38.25;;;16.13;;
72649;SDS011;61467;50.674;4.618;2024-03-07T12:27:04;28.95;;;15.30;;
72649;SDS011;61467;50.674;4.618;2024-03-07T12:29:33;31.93;;;15.90;;
72649;SDS011;61467;50.674;4.618;2024-03-07T12:32:03;35.28;;;15.75;;
72649;SDS011;61467;50.674;4.618;2024-03-07T12:34:31;34.13;;;14.63;;
72649;SDS011;61467;50.674;4.618;2024-03-07T12:37:01;31.20;;;14.63;;
72649;SDS011;61467;50.674;4.618;2024-03-07T12:39:31;34.08;;;17.73;;
72649;SDS011;61467;50.674;4.618;2024-03-07T12:42:01;29.13;;;14.43;;
72649;SDS011;61467;50.674;4.618;2024-03-07T12:44:40;36.00;;;15.13;;
72649;SDS011;61467;50.674;4.618;2024-03-07T12:47:09;27.92;;;14.50;;
72649;SDS011;61467;50.674;4.618;2024-03-07T12:49:37;31.13;;;15.30;;
72649;SDS011;61467;50.674;4.618;2024-03-07T12:52:04;32.08;;;16.77;;
72649;SDS011;61467;50.674;4.618;2024-03-07T12:54:33;30.67;;;15.47;;
72649;SDS011;61467;50.674;4.618;2024-03-07T12:57:02;28.58;;;15.85;;
72649;SDS011;61467;50.674;4.618;2024-03-07T12:59:30;31.42;;;16.40;;
72649;SDS011;61467;50.674;4.618;2024-03-07T13:01:59;30.25;;;15.80;;
72649;SDS011;61467;50.674;4.618;2024-03-07T13:04:28;28.60;;;15.63;;
72649;SDS011;61467;50.674;4.618;2024-03-07T13:06:55;29.30;;;15.43;;
72649;SDS011;61467;50.674;4.618;2024-03-07T13:09:25;28.00;;;15.57;;
72649;SDS011;61467;50.674;4.618;2024-03-07T13:11:53;27.85;;;14.55;;
72649;SDS011;61467;50.674;4.618;2024-03-07T13:14:20;25.95;;;13.30;;
72649;SDS011;61467;50.674;4.618;2024-03-07T13:16:47;25.02;;;13.65;;
72649;SDS011;61467;50.674;4.618;2024-03-07T13:19:16;25.80;;;13.13;;
72649;SDS011;61467;50.674;4.618;2024-03-07T13:21:46;24.42;;;12.85;;
72649;SDS011;61467;50.674;4.618;2024-03-07T13:24:14;24.40;;;13.25;;
72649;SDS011;61467;50.674;4.618;2024-03-07T13:26:42;25.30;;;13.75;;
72649;SDS011;61467;50.674;4.618;2024-03-07T13:29:09;28.80;;;13.80;;
72649;SDS011;61467;50.674;4.618;2024-03-07T13:31:37;24.60;;;13.47;;
72649;SDS011;61467;50.674;4.618;2024-03-07T13:34:05;26.23;;;13.27;;
72649;SDS011;61467;50.674;4.618;2024-03-07T13:36:39;25.42;;;13.10;;
72649;SDS011;61467;50.674;4.618;2024-03-07T13:39:07;24.63;;;12.90;;
72649;SDS011;61467;50.674;4.618;2024-03-07T13:41:36;23.35;;;13.00;;
72649;SDS011;61467;50.674;4.618;2024-03-07T13:44:03;24.87;;;13.10;;
72649;SDS011;61467;50.674;4.618;2024-03-07T13:46:31;26.77;;;12.75;;
72649;SDS011;61467;50.674;4.618;2024-03-07T13:48:58;25.15;;;12.73;;
72649;SDS011;61467;50.674;4.618;2024-03-07T13:51:32;22.77;;;12.55;;
72649;SDS011;61467;50.674;4.618;2024-03-07T13:54:02;25.45;;;12.68;;
72649;SDS011;61467;50.674;4.618;2024-03-07T13:56:52;23.87;;;13.43;;
72649;SDS011;61467;50.674;4.618;2024-03-07T13:59:37;24.92;;;13.48;;
72649;SDS011;61467;50.674;4.618;2024-03-07T14:02:51;25.10;;;13.85;;
72649;SDS011;61467;50.674;4.618;2024-03-07T14:05:57;25.42;;;13.40;;
72649;SDS011;61467;50.674;4.618;2024-03-07T14:14:28;21.52;;;11.57;;
72649;SDS011;61467;50.674;4.618;2024-03-07T14:17:22;23.77;;;13.48;;
72649;SDS011;61467;50.674;4.618;2024-03-07T14:20:20;23.88;;;12.95;;
72649;SDS011;61467;50.674;4.618;2024-03-07T14:23:18;21.95;;;12.30;;
72649;SDS011;61467;50.674;4.618;2024-03-07T14:26:05;25.53;;;12.73;;
72649;SDS011;61467;50.674;4.618;2024-03-07T14:29:03;19.60;;;11.13;;
72649;SDS011;61467;50.674;4.618;2024-03-07T14:31:40;22.27;;;12.30;;
72649;SDS011;61467;50.674;4.618;2024-03-07T14:34:11;22.45;;;12.30;;
72649;SDS011;61467;50.674;4.618;2024-03-07T14:36:43;23.23;;;12.27;;
72649;SDS011;61467;50.674;4.618;2024-03-07T14:39:14;20.87;;;11.60;;
72649;SDS011;61467;50.674;4.618;2024-03-07T14:41:48;23.02;;;11.85;;